KSGU/SGU METAR and TAF weather

Enter ICAO airport designator
Station Type Date Time Source
KSGU METAR 2019/06/16 12:56 UTC NOAA

KSGU 161256Z AUTO 14005KT 10SM CLR 20/05 A2988 RMK AO2 SLP081 T02000050


Station Type Date Time Source
KSGU Decoded METAR 2019/06/16 12:56 UTC NOAA

St George, St George Municipal Airport, UT, United States (KSGU) 37-05N 113-36W
Jun 16, 2019 - 08:56 AM EDT / 2019.06.16 1256 UTC
Wind: from the SE (140 degrees) at 6 MPH (5 KT):0
Visibility: 10 mile(s):0
Sky conditions: clear
Temperature: 68.0 F (20.0 C)
Dew Point: 41.0 F (5.0 C)
Relative Humidity: 37%
Pressure (altimeter): 29.88 in. Hg (1011 hPa)
ob: KSGU 161256Z AUTO 14005KT 10SM CLR 20/05 A2988 RMK AO2 SLP081 T02000050
cycle: 13

Station Type Date Time Source
KSGU TAF 2019/06/16 12:22 UTC NOAA

TAF KSGU 161120Z 1612/1712 VRB04KT P6SM SCT120
FM161900 22008KT P6SM SCT080 BKN120
FM170200 VRB04KT P6SM VCSH SCT080 BKN100

Example: see airport list